Rorichmoor — V2BV7 — position and weather

sailwx.info

Track history (hours):
 
Tides and Currents Weather Stations Pressure Air Temp Water Temp Dewpoint Dewpoint Depression Visibility Wind Speed Wind Dir Waves Ship Positions

Rorichmoor

Last reported at 2014-Nov-27 15:30 UTC. Time now 2014-Nov-28 00:20 UTC.
Position N 43°15' E 004°60'.

Length 80 m; draft 4.4 m.

Type: Cargo ship. MMSI: 304938000.

Date/timePositionNaut miles runAvg speedWind from/ knotsBaromVisibWave heightAir tempDewpointWater temp
2014-Nov-27 15:30N 43°15' E 004°60'8 8.6
2014-Nov-27 14:33N 43°23' E 004°57'  
2014-Nov-23 10:33N 43°23' E 004°49'4 4.1
2014-Nov-23 09:33N 43°24' E 004°54'7 6.9
2014-Nov-23 08:33N 43°18' E 004°60'8 6.8
2014-Nov-23 07:24N 43°11' E 005°03'48 7.7
2014-Nov-23 01:11N 42°23' E 005°07'48 8.0
2014-Nov-22 19:13N 41°41' E 005°37'15 8.5
2014-Nov-22 17:27N 41°29' E 005°49'8 9.1
2014-Nov-22 16:33N 41°22' E 005°56'43 8.3
2014-Nov-22 11:22N 40°48' E 006°30'11 8.9
2014-Nov-22 10:10N 40°39' E 006°38'  
2014-Nov-19 15:33N 43°16' E 004°59'9 9.1
2014-Nov-19 14:32N 43°23' E 004°52'3 2.8
2014-Nov-19 13:32N 43°23' E 004°49'0 0.0
2014-Nov-17 18:33N 43°23' E 004°48'6 6.1
2014-Nov-17 17:33N 43°23' E 004°57'4 3.5
2014-Nov-17 16:34N 43°20' E 004°59'3 3.0
2014-Nov-17 15:33N 43°17' E 005°01'  
Track history (hours):
 
Tides and Currents Weather Stations Pressure Air Temp Water Temp Dewpoint Dewpoint Depression Visibility Wind Speed Wind Dir Waves Ship Positions

Rorichmoor

Last reported at 2014-Nov-27 15:30 UTC. Time now 2014-Nov-28 00:20 UTC.
Position N 43°15' E 004°60'.

Length 80 m; draft 4.4 m.

Type: Cargo ship. MMSI: 304938000.

Date/timePositionNaut miles runAvg speedWind from/ knotsBaromVisibWave heightAir tempDewpointWater temp
2014-Nov-27 15:30N 43°15' E 004°60'8 8.6
2014-Nov-27 14:33N 43°23' E 004°57'  
2014-Nov-23 10:33N 43°23' E 004°49'4 4.1
2014-Nov-23 09:33N 43°24' E 004°54'7 6.9
2014-Nov-23 08:33N 43°18' E 004°60'8 6.8
2014-Nov-23 07:24N 43°11' E 005°03'48 7.7
2014-Nov-23 01:11N 42°23' E 005°07'48 8.0
2014-Nov-22 19:13N 41°41' E 005°37'15 8.5
2014-Nov-22 17:27N 41°29' E 005°49'8 9.1
2014-Nov-22 16:33N 41°22' E 005°56'43 8.3
2014-Nov-22 11:22N 40°48' E 006°30'11 8.9
2014-Nov-22 10:10N 40°39' E 006°38'  
2014-Nov-19 15:33N 43°16' E 004°59'9 9.1
2014-Nov-19 14:32N 43°23' E 004°52'3 2.8
2014-Nov-19 13:32N 43°23' E 004°49'0 0.0
2014-Nov-17 18:33N 43°23' E 004°48'6 6.1
2014-Nov-17 17:33N 43°23' E 004°57'4 3.5
2014-Nov-17 16:34N 43°20' E 004°59'3 3.0
2014-Nov-17 15:33N 43°17' E 005°01'  

Dump ship's entire track history